createdAt,value
2022-11-30T00:01:55.687Z,4.05
2022-11-30T00:04:24.966Z,4.38
2022-11-30T00:06:57.485Z,4.80
2022-11-30T00:09:32.142Z,4.75
2022-11-30T00:12:06.805Z,3.97
2022-11-30T00:14:42.041Z,4.50
2022-11-30T00:17:11.452Z,4.10
2022-11-30T00:19:40.805Z,4.32
2022-11-30T00:22:09.974Z,5.03
2022-11-30T00:24:39.838Z,4.53
2022-11-30T00:27:09.469Z,4.00
2022-11-30T00:29:40.405Z,3.88
2022-11-30T00:32:09.312Z,4.80
2022-11-30T00:34:38.598Z,5.05
2022-11-30T00:37:07.804Z,4.70
2022-11-30T00:39:37.219Z,4.88
2022-11-30T00:42:10.140Z,4.75
2022-11-30T00:44:41.280Z,5.32
2022-11-30T00:47:10.417Z,4.63
2022-11-30T00:49:39.481Z,4.63
2022-11-30T00:52:09.123Z,5.55
2022-11-30T00:54:37.989Z,4.97
2022-11-30T00:57:07.265Z,4.60
2022-11-30T00:59:36.354Z,4.65
2022-11-30T01:02:07.262Z,4.40
2022-11-30T01:04:36.539Z,5.07
2022-11-30T01:07:05.719Z,4.50
2022-11-30T01:09:34.673Z,4.93
2022-11-30T01:12:03.749Z,5.95
2022-11-30T01:14:33.440Z,5.10
2022-11-30T01:17:02.735Z,4.93
2022-11-30T01:19:33.011Z,4.25
2022-11-30T01:22:02.137Z,4.25
2022-11-30T01:24:31.262Z,4.70
2022-11-30T01:27:00.407Z,4.90
2022-11-30T01:29:29.752Z,5.07
2022-11-30T01:31:59.017Z,4.38
2022-11-30T01:34:28.084Z,4.50
2022-11-30T01:36:59.453Z,4.30
2022-11-30T01:39:28.355Z,4.05
2022-11-30T01:41:57.419Z,4.47
2022-11-30T01:44:52.180Z,4.53
2022-11-30T01:47:26.738Z,4.43
2022-11-30T01:50:02.452Z,4.15
2022-11-30T01:52:38.441Z,3.97
2022-11-30T01:55:20.127Z,4.38
2022-11-30T01:57:52.763Z,4.43
2022-11-30T02:00:22.671Z,3.72
2022-11-30T02:02:58.300Z,3.63
2022-11-30T02:05:28.092Z,4.63
2022-11-30T02:07:58.935Z,3.92
2022-11-30T02:10:30.756Z,3.88
2022-11-30T02:13:24.297Z,4.10
2022-11-30T02:16:04.543Z,4.13
2022-11-30T02:18:44.635Z,4.22
2022-11-30T02:21:18.204Z,4.18
2022-11-30T02:24:09.595Z,3.88
2022-11-30T02:26:56.686Z,4.78
2022-11-30T02:29:31.878Z,3.85
2022-11-30T02:32:09.020Z,4.10
2022-11-30T02:34:41.852Z,4.18
2022-11-30T02:37:13.919Z,3.95
2022-11-30T02:39:44.690Z,3.53
2022-11-30T02:42:14.786Z,3.95
2022-11-30T02:44:49.181Z,4.00
2022-11-30T02:47:25.108Z,4.05
2022-11-30T02:50:00.079Z,3.47
2022-11-30T02:52:30.972Z,4.10
2022-11-30T02:55:02.235Z,4.38
2022-11-30T02:57:31.678Z,4.25
2022-11-30T03:00:05.130Z,3.63
2022-11-30T03:02:34.097Z,4.45
2022-11-30T03:05:03.694Z,3.55
2022-11-30T03:07:32.875Z,3.63
2022-11-30T03:10:05.108Z,3.95
2022-11-30T03:12:34.133Z,4.05
2022-11-30T03:15:08.321Z,3.85
2022-11-30T03:17:37.102Z,4.45
2022-11-30T03:20:10.095Z,4.80
2022-11-30T03:22:39.362Z,4.70
2022-11-30T03:25:10.943Z,3.72
2022-11-30T03:27:40.251Z,3.45
2022-11-30T03:30:12.109Z,4.13
2022-11-30T03:32:41.309Z,3.65
2022-11-30T03:35:10.817Z,4.10
2022-11-30T03:37:39.912Z,3.58
2022-11-30T03:40:10.143Z,4.20
2022-11-30T03:42:39.474Z,4.18
2022-11-30T03:45:10.489Z,3.95
2022-11-30T03:47:42.179Z,3.97
2022-11-30T03:50:12.135Z,3.95
2022-11-30T03:52:41.227Z,3.70
2022-11-30T03:55:10.719Z,3.97
2022-11-30T03:57:39.716Z,3.83
2022-11-30T04:00:11.780Z,3.85
2022-11-30T04:02:45.082Z,4.47
2022-11-30T04:05:14.698Z,3.97
2022-11-30T04:07:43.945Z,3.63
2022-11-30T04:10:13.525Z,3.28
2022-11-30T04:12:42.599Z,3.78
2022-11-30T04:15:17.492Z,3.85
2022-11-30T04:17:46.762Z,3.13
2022-11-30T04:20:15.953Z,3.72
2022-11-30T04:22:46.849Z,3.55
2022-11-30T04:25:16.072Z,3.20
2022-11-30T04:27:49.234Z,4.03
2022-11-30T04:30:22.950Z,3.35
2022-11-30T04:32:52.051Z,3.47
2022-11-30T04:35:21.205Z,3.60
2022-11-30T04:37:50.255Z,3.50
2022-11-30T04:40:19.311Z,4.05
2022-11-30T04:42:48.551Z,4.28
2022-11-30T04:45:17.474Z,4.18
2022-11-30T04:47:48.127Z,4.20
2022-11-30T04:50:17.161Z,3.80
2022-11-30T04:52:47.633Z,3.83
2022-11-30T04:55:19.926Z,3.33
2022-11-30T04:57:49.909Z,4.63
2022-11-30T05:00:20.838Z,4.65
2022-11-30T05:02:53.215Z,4.22
2022-11-30T05:05:22.652Z,6.10
2022-11-30T05:07:52.964Z,4.63
2022-11-30T05:10:22.589Z,4.30
2022-11-30T05:12:52.162Z,4.20
2022-11-30T05:15:22.923Z,3.90
2022-11-30T05:17:53.947Z,4.53
2022-11-30T05:20:25.006Z,7.82
2022-11-30T05:22:54.202Z,4.95
2022-11-30T05:25:23.393Z,5.03
2022-11-30T05:27:52.716Z,4.10
2022-11-30T05:30:22.131Z,4.57
2022-11-30T05:32:51.384Z,5.57
2022-11-30T05:35:21.718Z,5.07
2022-11-30T05:37:51.160Z,4.80
2022-11-30T05:40:55.539Z,4.15
2022-11-30T05:43:26.810Z,4.45
2022-11-30T05:46:03.267Z,5.18
2022-11-30T11:21:53.826Z,5.38
2022-11-30T11:24:28.043Z,5.43
2022-11-30T11:26:58.451Z,5.25
2022-11-30T11:29:33.958Z,5.18
2022-11-30T11:32:25.920Z,6.05
2022-11-30T11:34:55.877Z,5.47
2022-11-30T11:37:28.968Z,6.13
2022-11-30T11:40:01.051Z,5.72
2022-11-30T11:42:33.455Z,5.28
2022-11-30T11:45:05.001Z,6.50
2022-11-30T11:47:41.075Z,6.13
2022-11-30T11:51:08.056Z,4.85
2022-11-30T11:53:53.279Z,5.93
2022-11-30T11:56:27.088Z,4.72
2022-11-30T11:58:59.979Z,4.88
2022-11-30T12:01:52.124Z,5.23
2022-11-30T12:04:41.308Z,4.85
2022-11-30T12:07:22.323Z,5.15
2022-11-30T12:10:00.078Z,4.93
2022-11-30T12:12:29.611Z,5.57
2022-11-30T12:14:58.812Z,6.63
2022-11-30T12:17:40.299Z,5.60
2022-11-30T12:20:18.880Z,5.10
2022-11-30T12:23:05.236Z,5.35
2022-11-30T12:25:40.975Z,5.35
2022-11-30T12:28:22.533Z,6.00
2022-11-30T12:31:03.069Z,5.90
2022-11-30T12:33:46.513Z,5.60
2022-11-30T12:36:22.668Z,5.68
2022-11-30T12:38:59.608Z,4.93
2022-11-30T12:41:39.596Z,5.18
2022-11-30T12:44:29.039Z,5.43
2022-11-30T12:47:06.840Z,5.70
2022-11-30T12:49:50.717Z,5.05
2022-11-30T12:52:34.018Z,5.75
2022-11-30T12:55:15.167Z,7.13
2022-11-30T12:57:51.035Z,5.93
2022-11-30T13:00:22.685Z,5.10
2022-11-30T13:03:18.903Z,5.82
2022-11-30T13:05:52.686Z,5.53
2022-11-30T13:10:58.047Z,5.38
2022-11-30T13:13:33.416Z,4.55
2022-11-30T13:16:05.873Z,4.93
2022-11-30T13:18:36.787Z,5.65
2022-11-30T13:21:11.392Z,5.95
2022-11-30T13:23:46.036Z,5.38
2022-11-30T13:26:25.009Z,4.63
2022-11-30T13:29:06.915Z,4.65
2022-11-30T13:31:42.618Z,5.30
2022-11-30T13:34:26.077Z,4.97
2022-11-30T13:37:04.599Z,4.80
2022-11-30T13:39:50.608Z,5.53
2022-11-30T13:42:34.598Z,5.38
2022-11-30T13:45:32.047Z,4.40
2022-11-30T13:48:17.504Z,5.18
2022-11-30T13:50:50.866Z,5.13
2022-11-30T13:56:22.799Z,3.63
2022-11-30T13:59:36.143Z,4.63
2022-11-30T14:02:43.220Z,5.15
2022-11-30T14:05:39.537Z,4.68
2022-11-30T14:08:18.945Z,4.50
2022-11-30T14:10:48.835Z,4.47
2022-11-30T14:13:30.450Z,4.30
2022-11-30T14:16:01.950Z,5.53
2022-11-30T14:18:40.982Z,4.93
2022-11-30T14:21:33.110Z,5.70
2022-11-30T14:24:06.767Z,4.80
2022-11-30T14:26:39.904Z,4.85
2022-11-30T14:29:18.458Z,4.80
2022-11-30T14:31:58.207Z,4.20
2022-11-30T14:34:32.089Z,4.38
2022-11-30T14:37:07.652Z,4.00
2022-11-30T14:39:39.100Z,4.22
2022-11-30T14:42:19.625Z,4.68
2022-11-30T14:44:49.616Z,4.25
2022-11-30T14:47:23.616Z,4.32
2022-11-30T14:49:55.067Z,5.43
2022-11-30T14:52:42.145Z,4.38
2022-11-30T14:55:21.886Z,4.88
2022-11-30T14:58:02.560Z,4.75
2022-11-30T15:00:39.441Z,5.13
2022-11-30T15:03:20.277Z,4.63
2022-11-30T15:05:53.381Z,4.53
2022-11-30T15:08:24.866Z,4.60
2022-11-30T15:11:07.052Z,4.57
2022-11-30T15:13:40.602Z,5.22
2022-11-30T15:16:17.789Z,5.10
2022-11-30T15:18:46.793Z,5.03
2022-11-30T15:21:20.178Z,4.70
2022-11-30T15:23:51.702Z,5.38
2022-11-30T15:26:25.852Z,4.88
2022-11-30T15:28:59.173Z,4.63
2022-11-30T15:31:33.828Z,5.65
2022-11-30T15:34:03.326Z,5.60
2022-11-30T15:36:35.916Z,4.60
2022-11-30T15:39:09.547Z,4.80
2022-11-30T15:41:38.518Z,4.30
2022-11-30T15:44:28.461Z,5.00
2022-11-30T15:47:00.143Z,4.40
2022-11-30T15:49:30.800Z,4.18
2022-11-30T15:52:04.767Z,5.65
2022-11-30T15:54:55.342Z,5.30
2022-11-30T15:57:25.917Z,5.05
2022-11-30T16:00:07.955Z,4.60
2022-11-30T16:02:38.655Z,4.90
2022-11-30T16:05:24.475Z,4.47
2022-11-30T16:07:55.746Z,4.95
2022-11-30T16:10:36.575Z,4.93
2022-11-30T16:13:06.865Z,5.25
2022-11-30T16:15:37.337Z,5.32
2022-11-30T16:18:16.386Z,5.25
2022-11-30T20:04:35.871Z,6.68
2022-11-30T20:07:08.862Z,6.90
2022-11-30T20:10:01.759Z,6.70
2022-11-30T20:12:32.058Z,5.90
2022-11-30T20:15:02.264Z,6.25
2022-11-30T20:17:31.842Z,7.10
2022-11-30T20:20:05.557Z,6.10
2022-11-30T20:25:04.420Z,5.97
2022-11-30T20:27:39.272Z,6.70
2022-11-30T20:30:10.017Z,6.80
2022-11-30T20:32:43.574Z,6.47
2022-11-30T20:35:14.473Z,6.32
2022-11-30T20:37:47.506Z,6.80
2022-11-30T20:40:38.617Z,6.63
2022-11-30T20:43:15.998Z,6.85
2022-11-30T20:45:57.102Z,6.30
2022-11-30T20:48:29.548Z,6.95
2022-11-30T20:51:30.114Z,6.50
2022-11-30T20:54:08.910Z,6.80
2022-11-30T20:56:39.285Z,6.47
2022-11-30T20:59:10.266Z,6.13
2022-11-30T21:01:41.869Z,6.40
2022-11-30T21:04:15.026Z,5.53
2022-11-30T21:06:46.766Z,6.10
2022-11-30T21:09:17.346Z,5.57
2022-11-30T21:11:47.285Z,5.32
2022-11-30T21:14:17.867Z,5.45
2022-11-30T21:16:52.273Z,5.70
2022-11-30T21:19:22.015Z,5.50
2022-11-30T21:21:53.585Z,5.40
2022-11-30T21:24:26.601Z,5.00
2022-11-30T21:26:56.363Z,4.60
2022-11-30T21:29:26.234Z,4.82
2022-11-30T21:31:56.717Z,4.68
2022-11-30T21:34:28.991Z,3.92
2022-11-30T21:37:00.397Z,3.90
2022-11-30T21:39:30.303Z,4.10
2022-11-30T21:42:07.301Z,4.57
2022-11-30T21:44:36.538Z,3.90
2022-11-30T21:47:08.878Z,4.20
2022-11-30T21:49:39.490Z,4.13
2022-11-30T21:52:14.206Z,3.80
2022-11-30T21:54:49.093Z,4.53
2022-11-30T21:57:19.960Z,3.97
2022-11-30T21:59:54.388Z,4.10
2022-11-30T22:02:23.850Z,4.05
2022-11-30T22:04:56.820Z,4.03
2022-11-30T22:07:32.592Z,4.72
2022-11-30T22:10:01.596Z,5.43
2022-11-30T22:12:31.565Z,6.70
2022-11-30T22:15:01.369Z,5.22
2022-11-30T22:17:32.124Z,5.18
2022-11-30T22:20:01.409Z,5.18
2022-11-30T22:22:33.241Z,4.10
2022-11-30T22:25:02.261Z,3.78
2022-11-30T22:27:31.257Z,3.60
2022-11-30T22:30:00.306Z,5.18
2022-11-30T22:32:29.757Z,4.28
2022-11-30T22:34:59.058Z,4.10
2022-11-30T22:37:29.918Z,3.63
2022-11-30T22:40:00.944Z,3.70
2022-11-30T22:42:30.130Z,3.78
2022-11-30T22:44:59.239Z,3.70
2022-11-30T22:47:28.286Z,3.75
2022-11-30T22:49:57.563Z,4.28
2022-11-30T22:52:48.282Z,3.65
2022-11-30T22:55:20.552Z,3.72
2022-11-30T22:57:49.929Z,4.03
2022-11-30T23:00:19.941Z,4.47
2022-11-30T23:02:52.016Z,3.88
2022-11-30T23:05:23.841Z,4.20
2022-11-30T23:07:53.260Z,3.60
2022-11-30T23:10:23.873Z,3.95
2022-11-30T23:12:59.447Z,3.97
2022-11-30T23:15:36.995Z,4.25
2022-11-30T23:18:06.627Z,4.22
2022-11-30T23:20:36.443Z,3.40
2022-11-30T23:23:05.536Z,4.32
2022-11-30T23:25:38.106Z,3.92
2022-11-30T23:28:07.702Z,4.32
2022-11-30T23:30:39.952Z,4.20
2022-11-30T23:33:11.785Z,3.40
2022-11-30T23:35:44.763Z,4.03
2022-11-30T23:38:13.948Z,3.08
2022-11-30T23:40:44.394Z,3.92
2022-11-30T23:43:13.458Z,3.15
2022-11-30T23:45:43.300Z,3.45
2022-11-30T23:48:13.094Z,3.33
2022-11-30T23:50:42.319Z,3.70
2022-11-30T23:53:11.394Z,4.28
2022-11-30T23:55:41.132Z,3.88
2022-11-30T23:58:11.546Z,3.72
